createdAt,value
2019-05-29T00:01:38.115Z,97319.08
2019-05-29T00:03:39.715Z,97324.27
2019-05-29T00:05:41.402Z,97325.15
2019-05-29T00:07:43.245Z,97329.80
2019-05-29T00:09:44.959Z,97325.13
2019-05-29T00:11:46.585Z,97322.98
2019-05-29T00:13:48.219Z,97330.16
2019-05-29T00:15:49.812Z,97325.91
2019-05-29T00:17:51.444Z,97335.36
2019-05-29T00:19:53.038Z,97278.27
2019-05-29T00:21:54.665Z,97330.75
2019-05-29T00:23:56.365Z,97335.01
2019-05-29T00:25:58.454Z,97338.80
2019-05-29T00:28:00.126Z,97338.84
2019-05-29T00:30:01.800Z,97343.55
2019-05-29T00:32:03.432Z,97343.45
2019-05-29T00:34:05.032Z,97340.38
2019-05-29T00:36:06.612Z,97345.52
2019-05-29T00:38:08.482Z,97345.61
2019-05-29T00:40:10.895Z,97347.42
2019-05-29T00:42:13.199Z,97358.14
2019-05-29T00:44:13.464Z,97358.59
2019-05-29T00:46:15.546Z,97360.30
2019-05-29T00:48:17.940Z,97365.66
2019-05-29T00:50:18.844Z,97375.05
2019-05-29T00:52:20.518Z,97371.59
2019-05-29T00:54:22.095Z,97359.73
2019-05-29T00:56:23.673Z,97387.45
2019-05-29T00:58:25.562Z,97389.16
2019-05-29T01:00:27.246Z,97394.81
2019-05-29T01:02:28.889Z,97398.73
2019-05-29T01:04:30.482Z,97402.17
2019-05-29T01:06:32.116Z,97409.41
2019-05-29T01:08:33.809Z,97410.68
2019-05-29T01:10:35.522Z,97417.08
2019-05-29T01:12:37.887Z,97425.08
2019-05-29T01:14:49.759Z,97422.19
2019-05-29T01:16:41.200Z,97415.69
2019-05-29T01:18:42.826Z,97414.50
2019-05-29T01:22:52.067Z,97423.36
2019-05-29T01:24:55.138Z,97419.93
2019-05-29T01:26:56.791Z,97428.05
2019-05-29T01:28:58.415Z,97430.94
2019-05-29T01:31:00.100Z,97433.47
2019-05-29T01:33:01.754Z,97432.55
2019-05-29T01:35:03.341Z,97422.72
2019-05-29T01:37:04.999Z,97435.64
2019-05-29T01:39:06.627Z,97449.27
2019-05-29T01:41:08.259Z,97459.13
2019-05-29T01:43:09.851Z,97453.63
2019-05-29T01:45:11.463Z,97453.28
2019-05-29T01:47:13.114Z,97451.64
2019-05-29T01:49:16.031Z,97460.22
2019-05-29T01:51:17.404Z,97462.40
2019-05-29T01:53:18.210Z,97465.41
2019-05-29T01:55:19.910Z,97472.23
2019-05-29T01:57:21.807Z,97468.86
2019-05-29T01:59:23.961Z,97473.86
2019-05-29T02:01:24.931Z,97477.73
2019-05-29T02:03:26.556Z,97475.70
2019-05-29T02:05:28.359Z,97480.30
2019-05-29T02:07:29.919Z,97479.94
2019-05-29T02:09:31.565Z,97488.77
2019-05-29T02:11:33.274Z,97485.00
2019-05-29T02:13:34.871Z,97483.41
2019-05-29T02:15:36.723Z,97462.50
2019-05-29T02:17:38.639Z,97490.78
2019-05-29T02:19:40.298Z,97492.22
2019-05-29T02:21:41.887Z,97494.52
2019-05-29T02:23:44.341Z,97447.81
2019-05-29T02:25:45.986Z,97497.56
2019-05-29T02:27:47.791Z,97498.16
2019-05-29T02:29:49.669Z,97507.88
2019-05-29T02:31:51.326Z,97506.08
2019-05-29T02:33:52.953Z,97511.95
2019-05-29T02:35:54.568Z,97514.27
2019-05-29T02:37:56.269Z,97508.49
2019-05-29T02:39:57.917Z,97509.48
2019-05-29T02:41:59.577Z,97508.23
2019-05-29T02:44:01.237Z,97512.23
2019-05-29T02:46:03.082Z,97520.41
2019-05-29T02:48:04.673Z,97521.45
2019-05-29T02:50:06.263Z,97526.25
2019-05-29T02:52:08.599Z,97526.41
2019-05-29T02:54:10.371Z,97531.64
2019-05-29T02:56:12.047Z,97535.95
2019-05-29T02:58:13.622Z,97557.39
2019-05-29T03:00:16.008Z,97550.30
2019-05-29T03:02:17.705Z,97544.43
2019-05-29T03:04:19.333Z,97559.91
2019-05-29T03:06:22.320Z,97566.81
2019-05-29T03:08:24.599Z,97574.52
2019-05-29T03:10:26.596Z,97578.02
2019-05-29T03:12:29.195Z,97585.21
2019-05-29T03:14:29.666Z,97581.86
2019-05-29T03:16:32.872Z,97586.55
2019-05-29T03:18:34.713Z,97593.92
2019-05-29T03:20:34.562Z,97592.41
2019-05-29T03:22:35.967Z,97602.71
2019-05-29T03:24:37.617Z,97607.06
2019-05-29T03:26:39.256Z,97607.56
2019-05-29T03:28:40.882Z,97610.25
2019-05-29T03:30:46.264Z,97612.92
2019-05-29T03:32:48.257Z,97617.67
2019-05-29T03:34:47.376Z,97625.72
2019-05-29T03:36:48.870Z,97630.41
2019-05-29T03:38:49.325Z,97627.84
2019-05-29T03:40:50.923Z,97633.06
2019-05-29T03:42:52.595Z,97636.53
2019-05-29T03:44:54.263Z,97636.97
2019-05-29T03:46:55.904Z,97644.23
2019-05-29T03:48:57.530Z,97653.29
2019-05-29T03:50:59.194Z,97665.75
2019-05-29T03:53:00.864Z,97654.69
2019-05-29T03:55:02.640Z,97661.23
2019-05-29T03:57:04.270Z,97665.98
2019-05-29T03:59:05.991Z,97669.00
2019-05-29T04:01:07.661Z,97670.80
2019-05-29T04:03:09.439Z,97675.16
2019-05-29T04:05:11.214Z,97680.80
2019-05-29T04:07:12.883Z,97681.27
2019-05-29T04:09:14.536Z,97677.05
2019-05-29T04:11:16.242Z,97685.63
2019-05-29T04:13:17.910Z,97689.07
2019-05-29T04:15:19.491Z,97690.51
2019-05-29T04:17:21.363Z,97698.13
2019-05-29T04:19:23.265Z,97699.87
2019-05-29T04:21:24.879Z,97702.34
2019-05-29T04:23:27.817Z,97711.05
2019-05-29T04:25:32.043Z,97710.77
2019-05-29T04:27:30.148Z,97710.25
2019-05-29T04:29:32.057Z,97707.00
2019-05-29T04:31:34.494Z,97720.22
2019-05-29T04:33:36.642Z,97725.94
2019-05-29T04:35:37.231Z,97717.09
2019-05-29T04:37:39.830Z,97734.29
2019-05-29T04:39:40.388Z,97738.70
2019-05-29T04:41:41.991Z,97737.73
2019-05-29T04:43:43.589Z,97743.09
2019-05-29T04:45:45.188Z,97743.13
2019-05-29T04:47:46.903Z,97744.52
2019-05-29T04:49:48.483Z,97749.73
2019-05-29T04:51:50.269Z,97748.87
2019-05-29T04:53:51.867Z,97755.67
2019-05-29T04:55:53.511Z,97756.95
2019-05-29T04:57:55.162Z,97765.42
2019-05-29T04:59:56.815Z,97771.27
2019-05-29T05:01:58.442Z,97772.75
2019-05-29T05:04:00.086Z,97775.91
2019-05-29T05:06:01.738Z,97780.52
2019-05-29T05:08:03.430Z,97784.20
2019-05-29T05:10:05.190Z,97782.51
2019-05-29T05:12:06.819Z,97781.22
2019-05-29T05:14:08.447Z,97756.92
2019-05-29T05:16:10.042Z,97793.50
2019-05-29T05:18:11.712Z,97790.94
2019-05-29T05:20:13.302Z,97788.85
2019-05-29T05:22:14.875Z,97790.70
2019-05-29T05:24:16.502Z,97795.50
2019-05-29T05:26:18.876Z,97799.34
2019-05-29T05:28:20.548Z,97749.80
2019-05-29T05:30:22.126Z,97816.25
2019-05-29T05:32:23.803Z,97820.19
2019-05-29T05:34:25.449Z,97827.52
2019-05-29T05:36:27.104Z,97826.71
2019-05-29T05:38:28.769Z,97838.67
2019-05-29T05:40:30.774Z,97836.13
2019-05-29T05:42:32.898Z,97839.53
2019-05-29T05:44:34.877Z,97842.08
2019-05-29T05:46:35.407Z,97844.65
2019-05-29T05:48:37.189Z,97851.48
2019-05-29T05:50:39.454Z,97846.42
2019-05-29T05:52:41.530Z,97862.30
2019-05-29T05:54:42.147Z,97868.80
2019-05-29T05:56:43.779Z,97862.06
2019-05-29T05:58:45.430Z,97874.08
2019-05-29T06:00:47.070Z,97875.77
2019-05-29T06:02:52.128Z,97872.47
2019-05-29T06:04:50.398Z,97873.32
2019-05-29T06:06:52.036Z,97880.63
2019-05-29T06:08:53.615Z,97887.19
2019-05-29T06:10:55.306Z,97887.63
2019-05-29T06:12:56.903Z,97888.42
2019-05-29T06:14:58.594Z,97891.30
2019-05-29T06:17:00.245Z,97895.41
2019-05-29T06:19:01.950Z,97892.78
2019-05-29T06:21:03.566Z,97895.23
2019-05-29T06:23:05.238Z,97892.96
2019-05-29T06:25:06.975Z,97885.27
2019-05-29T06:27:08.614Z,97888.10
2019-05-29T06:29:10.264Z,97893.08
2019-05-29T06:31:11.919Z,97888.22
2019-05-29T06:33:13.626Z,97891.03
2019-05-29T06:35:15.290Z,97888.27
2019-05-29T06:37:17.010Z,97889.81
2019-05-29T06:39:18.636Z,97888.02
2019-05-29T06:41:21.710Z,97900.23
2019-05-29T06:43:23.494Z,97860.70
2019-05-29T06:45:25.146Z,97894.27
2019-05-29T06:47:26.885Z,97901.00
2019-05-29T06:49:29.260Z,97897.19
2019-05-29T06:51:31.162Z,97901.45
2019-05-29T06:53:32.830Z,97895.89
2019-05-29T06:55:35.796Z,97907.78
2019-05-29T06:57:38.082Z,97909.05
2019-05-29T06:59:38.603Z,97908.19
2019-05-29T07:01:41.454Z,97909.97
2019-05-29T07:03:43.771Z,97911.25
2019-05-29T07:05:50.615Z,97917.32
2019-05-29T07:07:46.595Z,97930.21
2019-05-29T07:09:48.062Z,97930.66
2019-05-29T07:11:49.718Z,97938.16
2019-05-29T07:13:51.323Z,97950.55
2019-05-29T07:15:52.994Z,97948.55
2019-05-29T07:17:54.623Z,97951.98
2019-05-29T07:20:03.151Z,97957.50
2019-05-29T07:21:58.044Z,97957.71
2019-05-29T07:23:59.674Z,97959.61
2019-05-29T07:26:01.440Z,97957.20
2019-05-29T07:28:03.143Z,97962.39
2019-05-29T07:30:04.995Z,97962.88
2019-05-29T07:32:06.772Z,97963.81
2019-05-29T07:34:08.450Z,97965.05
2019-05-29T07:36:10.106Z,97963.33
2019-05-29T07:38:11.745Z,97973.56
2019-05-29T07:40:13.375Z,97967.61
2019-05-29T07:42:15.144Z,97970.56
2019-05-29T07:44:16.784Z,97970.56
2019-05-29T07:46:18.598Z,97971.38
2019-05-29T07:48:22.218Z,97969.70
2019-05-29T07:50:23.846Z,97971.80
2019-05-29T07:52:25.418Z,97976.41
2019-05-29T07:54:26.996Z,97978.16
2019-05-29T07:56:28.622Z,97976.89
2019-05-29T07:58:30.242Z,97981.09
2019-05-29T08:00:35.787Z,97980.64
2019-05-29T08:02:33.720Z,97980.59
2019-05-29T08:04:35.378Z,97986.12
2019-05-29T08:06:36.982Z,97988.62
2019-05-29T08:08:39.162Z,97988.51
2019-05-29T08:10:41.669Z,97979.80
2019-05-29T08:12:46.810Z,97983.91
2019-05-29T08:14:43.802Z,97985.85
2019-05-29T08:16:46.034Z,97985.00
2019-05-29T08:18:49.455Z,97988.78
2019-05-29T08:20:48.989Z,97996.03
2019-05-29T08:22:51.021Z,97998.66
2019-05-29T08:24:52.466Z,98001.74
2019-05-29T08:26:54.071Z,98007.73
2019-05-29T08:28:55.708Z,98009.95
2019-05-29T08:30:57.371Z,98013.00
2019-05-29T08:32:58.951Z,98021.16
2019-05-29T08:35:00.550Z,98016.91
2019-05-29T08:37:06.983Z,98016.48
2019-05-29T08:39:03.853Z,98018.20
2019-05-29T08:41:06.046Z,98020.33
2019-05-29T08:43:07.405Z,98012.34
2019-05-29T08:45:09.079Z,98022.09
2019-05-29T08:47:11.192Z,98017.11
2019-05-29T08:49:12.481Z,98024.59
2019-05-29T08:51:14.147Z,98027.50
2019-05-29T08:53:15.980Z,98021.98
2019-05-29T08:55:17.672Z,98033.41
2019-05-29T08:57:19.270Z,98037.38
2019-05-29T08:59:21.107Z,98038.48
2019-05-29T09:01:22.886Z,98035.67
2019-05-29T09:03:24.491Z,98037.94
2019-05-29T09:05:26.131Z,98040.72
2019-05-29T09:07:27.798Z,98046.77
2019-05-29T09:09:29.378Z,98043.36
2019-05-29T09:11:30.996Z,98056.04
2019-05-29T09:13:32.723Z,98052.50
2019-05-29T09:15:34.400Z,98049.99
2019-05-29T09:17:36.050Z,98050.81
2019-05-29T09:19:38.308Z,98049.83
2019-05-29T09:21:40.328Z,98054.70
2019-05-29T09:23:42.114Z,98050.08
2019-05-29T09:25:43.993Z,98048.88
2019-05-29T09:27:45.596Z,98051.48
2019-05-29T09:29:47.240Z,98052.23
2019-05-29T09:31:48.910Z,98053.17
2019-05-29T09:33:50.687Z,98064.89
2019-05-29T09:35:52.328Z,98064.33
2019-05-29T09:37:53.995Z,98065.03
2019-05-29T09:39:55.717Z,98068.02
2019-05-29T09:41:57.588Z,98069.62
2019-05-29T09:44:00.301Z,98076.34
2019-05-29T09:46:02.267Z,98075.56
2019-05-29T09:48:02.844Z,98083.39
2019-05-29T09:50:04.693Z,98084.02
2019-05-29T09:52:06.372Z,98080.27
2019-05-29T09:54:08.086Z,98085.70
2019-05-29T09:56:09.810Z,98096.50
2019-05-29T09:58:11.484Z,98088.57
2019-05-29T10:00:13.104Z,98094.06
2019-05-29T10:02:14.962Z,98095.27
2019-05-29T10:04:16.577Z,98096.56
2019-05-29T10:06:18.393Z,98101.55
2019-05-29T10:08:20.173Z,98103.92
2019-05-29T10:10:22.048Z,98104.55
2019-05-29T10:12:23.926Z,98103.94
2019-05-29T10:14:25.570Z,98106.64
2019-05-29T10:16:27.384Z,98106.00
2019-05-29T10:18:32.556Z,98102.75
2019-05-29T10:20:31.235Z,98103.69
2019-05-29T10:22:33.013Z,98104.88
2019-05-29T10:24:34.892Z,98107.44
2019-05-29T10:26:36.521Z,98110.45
2019-05-29T10:28:50.178Z,98104.12
2019-05-29T10:30:42.283Z,98096.53
2019-05-29T10:32:44.362Z,98101.79
2019-05-29T10:34:44.506Z,98107.52
2019-05-29T10:36:49.952Z,98111.09
2019-05-29T10:38:48.649Z,98112.95
2019-05-29T10:41:04.608Z,98114.14
2019-05-29T10:42:53.392Z,98110.67
2019-05-29T10:44:54.318Z,98117.16
2019-05-29T10:46:56.586Z,98123.71
2019-05-29T10:48:58.309Z,98126.75
2019-05-29T10:50:59.962Z,98131.88
2019-05-29T10:53:01.602Z,98125.86
2019-05-29T10:55:03.290Z,98134.37
2019-05-29T10:57:05.636Z,98134.37
2019-05-29T10:59:07.232Z,98132.25
2019-05-29T11:01:08.916Z,98136.60
2019-05-29T11:03:11.404Z,98091.23
2019-05-29T11:05:13.030Z,98131.20
2019-05-29T11:07:15.288Z,98139.80
2019-05-29T11:09:16.919Z,98139.09
2019-05-29T11:11:18.519Z,98141.26
2019-05-29T11:13:20.180Z,98141.75
2019-05-29T11:15:22.173Z,98149.01
2019-05-29T11:17:23.637Z,98145.58
2019-05-29T11:19:26.168Z,98154.60
2019-05-29T11:21:27.289Z,98152.70
2019-05-29T11:23:29.167Z,98159.31
2019-05-29T11:25:31.557Z,98162.56
2019-05-29T11:27:33.264Z,98164.39
2019-05-29T11:29:34.890Z,98133.56
2019-05-29T11:31:36.518Z,98169.52
2019-05-29T11:33:38.261Z,98162.27
2019-05-29T11:35:56.756Z,98158.02
2019-05-29T11:37:41.706Z,98153.17
2019-05-29T11:39:43.379Z,98151.34
2019-05-29T11:41:45.050Z,98156.39
2019-05-29T11:43:46.688Z,98147.27
2019-05-29T11:45:48.294Z,98155.33
2019-05-29T11:47:51.545Z,98145.73
2019-05-29T11:49:53.025Z,98150.50
2019-05-29T11:51:58.580Z,98147.13
2019-05-29T11:53:57.415Z,98145.36
2019-05-29T11:55:57.923Z,98142.35
2019-05-29T11:58:00.166Z,98142.80
2019-05-29T12:00:17.164Z,98147.56
2019-05-29T12:02:03.594Z,98146.80
2019-05-29T12:04:23.151Z,98145.59
2019-05-29T12:06:07.831Z,98146.92
2019-05-29T12:08:09.320Z,98148.63
2019-05-29T12:10:11.186Z,98151.63
2019-05-29T12:12:12.927Z,98149.08
2019-05-29T12:14:14.526Z,98161.89
2019-05-29T12:16:16.174Z,98167.49
2019-05-29T12:18:23.988Z,98163.73
2019-05-29T12:20:28.751Z,98159.04
2019-05-29T12:22:21.744Z,98170.50
2019-05-29T12:24:23.372Z,98164.52
2019-05-29T12:26:25.052Z,98164.08
2019-05-29T12:28:26.755Z,98164.51
2019-05-29T12:30:28.505Z,98172.56
2019-05-29T12:32:30.177Z,98174.67
2019-05-29T12:34:31.783Z,98169.62
2019-05-29T12:36:33.525Z,98169.14
2019-05-29T12:38:35.123Z,98174.59
2019-05-29T12:40:36.830Z,98174.73
2019-05-29T12:42:38.456Z,98169.77
2019-05-29T12:44:40.095Z,98173.10
2019-05-29T12:46:42.099Z,98168.27
2019-05-29T12:48:43.875Z,98166.14
2019-05-29T12:50:45.510Z,98174.25
2019-05-29T12:52:47.134Z,98167.84
2019-05-29T12:54:48.827Z,98167.98
2019-05-29T12:56:50.403Z,98170.12
2019-05-29T12:58:52.143Z,98161.69
2019-05-29T13:00:54.447Z,98161.84
2019-05-29T13:02:56.343Z,98172.23
2019-05-29T13:05:13.037Z,98169.75
2019-05-29T13:07:00.482Z,98172.38
2019-05-29T13:09:02.550Z,98172.88
2019-05-29T13:11:04.869Z,98168.67
2019-05-29T13:13:10.697Z,98173.30
2019-05-29T13:15:06.817Z,98165.97
2019-05-29T13:17:08.588Z,98172.23
2019-05-29T13:19:10.180Z,98167.97
2019-05-29T13:21:11.867Z,98170.97
2019-05-29T13:23:13.503Z,98174.88
2019-05-29T13:25:15.132Z,98176.23
2019-05-29T13:27:16.774Z,98166.53
2019-05-29T13:29:18.375Z,98171.16
2019-05-29T13:31:20.138Z,98170.65
2019-05-29T13:33:21.730Z,98176.16
2019-05-29T13:35:23.364Z,98168.97
2019-05-29T13:37:24.938Z,98175.79
2019-05-29T13:39:29.775Z,98171.59
2019-05-29T13:41:28.302Z,98181.46
2019-05-29T13:43:29.903Z,98178.50
2019-05-29T13:45:31.533Z,98172.95
2019-05-29T13:47:33.158Z,98170.39
2019-05-29T13:49:34.735Z,98177.27
2019-05-29T13:51:36.498Z,98170.14
2019-05-29T13:53:38.135Z,98168.94
2019-05-29T13:55:39.799Z,98180.89
2019-05-29T13:57:41.454Z,98179.67
2019-05-29T13:59:43.055Z,98176.28
2019-05-29T14:01:48.225Z,98182.31
2019-05-29T14:03:50.476Z,98175.60
2019-05-29T14:05:49.242Z,98172.86
2019-05-29T14:07:50.823Z,98173.70
2019-05-29T14:09:52.482Z,98174.02
2019-05-29T14:11:54.123Z,98177.41
2019-05-29T14:13:55.788Z,98172.22
2019-05-29T14:15:57.464Z,98174.28
2019-05-29T14:18:00.577Z,98179.36
2019-05-29T14:20:00.858Z,98172.46
2019-05-29T14:22:03.100Z,98177.14
2019-05-29T14:24:23.455Z,98176.70
2019-05-29T14:26:06.529Z,98172.00
2019-05-29T14:28:08.778Z,98178.35
2019-05-29T14:30:10.606Z,98179.69
2019-05-29T14:32:11.646Z,98181.41
2019-05-29T14:34:13.494Z,98180.19
2019-05-29T14:36:15.056Z,98136.11
2019-05-29T14:38:16.728Z,98180.31
2019-05-29T14:40:18.426Z,98179.91
2019-05-29T14:42:20.105Z,98178.75
2019-05-29T14:44:21.717Z,98177.47
2019-05-29T14:46:23.408Z,98178.66
2019-05-29T14:48:24.991Z,98182.23
2019-05-29T14:50:26.662Z,98178.88
2019-05-29T14:52:28.241Z,98188.28
2019-05-29T14:54:41.232Z,98190.91
2019-05-29T14:56:31.666Z,98193.09
2019-05-29T14:58:33.280Z,98191.83
2019-05-29T15:00:34.867Z,98186.34
2019-05-29T15:02:36.449Z,98187.68
2019-05-29T15:04:38.114Z,98189.39
2019-05-29T15:06:39.811Z,98193.73
2019-05-29T15:08:41.480Z,98200.61
2019-05-29T15:10:43.110Z,98202.38
2019-05-29T15:12:44.706Z,98204.95
2019-05-29T15:14:46.309Z,98199.41
2019-05-29T15:16:47.979Z,98180.82
2019-05-29T15:18:49.634Z,98200.13
2019-05-29T15:20:51.214Z,98197.13
2019-05-29T15:22:52.896Z,98201.70
2019-05-29T15:25:04.135Z,98195.23
2019-05-29T15:26:56.307Z,98196.45
2019-05-29T15:28:57.975Z,98191.27
2019-05-29T15:30:59.650Z,98198.02
2019-05-29T15:33:01.364Z,98200.20
2019-05-29T15:35:02.985Z,98207.90
2019-05-29T15:37:04.618Z,98208.83
2019-05-29T15:39:06.505Z,98207.59
2019-05-29T15:41:08.692Z,98208.08
2019-05-29T15:43:10.832Z,98204.69
2019-05-29T15:45:11.842Z,98215.39
2019-05-29T15:47:13.151Z,98212.00
2019-05-29T15:49:15.216Z,98211.69
2019-05-29T15:51:17.158Z,98215.96
2019-05-29T15:53:18.276Z,98216.87
2019-05-29T15:55:29.769Z,98188.22
2019-05-29T15:57:21.655Z,98210.96
2019-05-29T15:59:23.302Z,98209.26
2019-05-29T16:01:24.903Z,98215.61
2019-05-29T16:03:26.586Z,98207.06
2019-05-29T16:05:28.166Z,98215.59
2019-05-29T16:07:29.841Z,98216.83
2019-05-29T16:09:31.527Z,98216.45
2019-05-29T16:11:33.171Z,98217.36
2019-05-29T16:13:34.843Z,98220.36
2019-05-29T16:15:36.515Z,98201.05
2019-05-29T16:17:38.158Z,98198.16
2019-05-29T16:19:39.759Z,98226.88
2019-05-29T16:21:41.399Z,98229.93
2019-05-29T16:23:43.062Z,98227.43
2019-05-29T16:25:44.634Z,98228.77
2019-05-29T16:27:46.272Z,98222.45
2019-05-29T16:29:47.918Z,98238.22
2019-05-29T16:31:49.501Z,98232.69
2019-05-29T16:33:51.185Z,98232.98
2019-05-29T16:35:52.829Z,98236.78
2019-05-29T16:37:54.506Z,98232.91
2019-05-29T16:39:56.154Z,98232.41
2019-05-29T16:41:57.774Z,98238.73
2019-05-29T16:43:59.422Z,98240.39
2019-05-29T16:46:01.078Z,98239.12
2019-05-29T16:48:02.708Z,98246.41
2019-05-29T16:50:04.367Z,98241.73
2019-05-29T16:52:06.018Z,98241.74
2019-05-29T16:54:07.657Z,98249.89
2019-05-29T16:56:09.258Z,98246.11
2019-05-29T16:58:10.839Z,98245.27
2019-05-29T17:00:13.585Z,98226.89
2019-05-29T17:02:15.506Z,98256.42
2019-05-29T17:04:15.894Z,98252.23
2019-05-29T17:06:17.773Z,98255.69
2019-05-29T17:08:20.343Z,98253.16
2019-05-29T17:10:20.927Z,98254.92
2019-05-29T17:12:22.652Z,98257.10
2019-05-29T17:14:25.047Z,98258.86
2019-05-29T17:16:25.976Z,98258.45
2019-05-29T17:18:27.606Z,98263.55
2019-05-29T17:20:29.243Z,98264.77
2019-05-29T17:22:30.881Z,98261.30
2019-05-29T17:24:32.541Z,98265.50
2019-05-29T17:26:34.222Z,98267.14
2019-05-29T17:28:35.863Z,98272.67
2019-05-29T17:30:37.520Z,98271.76
2019-05-29T17:32:39.144Z,98277.25
2019-05-29T17:34:40.778Z,98280.20
2019-05-29T17:36:42.464Z,98282.77
2019-05-29T17:38:44.108Z,98282.34
2019-05-29T17:40:45.795Z,98282.78
2019-05-29T17:42:47.478Z,98281.98
2019-05-29T17:44:49.086Z,98276.50
2019-05-29T17:46:50.774Z,98277.39
2019-05-29T17:48:52.417Z,98278.34
2019-05-29T17:50:54.087Z,98279.22
2019-05-29T17:52:55.746Z,98281.86
2019-05-29T17:54:57.322Z,98277.20
2019-05-29T17:56:59.140Z,98281.09
2019-05-29T17:59:00.750Z,98284.48
2019-05-29T18:01:02.380Z,98287.89
2019-05-29T18:03:04.047Z,98283.53
2019-05-29T18:05:05.700Z,98289.02
2019-05-29T18:07:07.327Z,98282.98
2019-05-29T18:09:08.959Z,98294.43
2019-05-29T18:11:10.623Z,98293.13
2019-05-29T18:13:12.250Z,98296.48
2019-05-29T18:15:13.906Z,98300.31
2019-05-29T18:17:15.491Z,98304.11
2019-05-29T18:19:17.553Z,98303.29
2019-05-29T18:21:19.582Z,98303.31
2019-05-29T18:23:21.578Z,98301.25
2019-05-29T18:25:22.301Z,98303.88
2019-05-29T18:27:23.984Z,98309.91
2019-05-29T18:29:26.284Z,98305.27
2019-05-29T18:31:28.630Z,98316.02
2019-05-29T18:33:29.076Z,98310.92
2019-05-29T18:35:30.743Z,98313.52
2019-05-29T18:37:32.522Z,98315.70
2019-05-29T18:39:34.088Z,98316.56
2019-05-29T18:41:35.737Z,98316.13
2019-05-29T18:43:37.398Z,98317.35
2019-05-29T18:45:39.056Z,98320.28
2019-05-29T18:47:40.655Z,98318.54
2019-05-29T18:49:42.285Z,98328.38
2019-05-29T18:51:43.953Z,98334.78
2019-05-29T18:53:45.730Z,98342.93
2019-05-29T18:55:47.382Z,98337.44
2019-05-29T18:57:49.034Z,98341.75
2019-05-29T18:59:50.749Z,98342.13
2019-05-29T19:01:52.424Z,98340.84
2019-05-29T19:03:54.091Z,98345.02
2019-05-29T19:05:55.720Z,98346.66
2019-05-29T19:07:57.388Z,98350.02
2019-05-29T19:09:59.051Z,98359.33
2019-05-29T19:12:01.419Z,98358.00
2019-05-29T19:14:03.695Z,98358.38
2019-05-29T19:16:06.257Z,98366.52
2019-05-29T19:18:09.063Z,98366.96
2019-05-29T19:20:10.745Z,98373.02
2019-05-29T19:22:12.565Z,98378.95
2019-05-29T19:24:14.581Z,98375.00
2019-05-29T19:26:16.251Z,98379.23
2019-05-29T19:28:18.701Z,98383.81
2019-05-29T19:30:22.815Z,98384.19
2019-05-29T19:32:27.303Z,98391.80
2019-05-29T19:34:29.090Z,98390.09
2019-05-29T19:36:29.963Z,98395.22
2019-05-29T19:38:31.947Z,98395.27
2019-05-29T19:40:36.693Z,98397.45
2019-05-29T19:42:38.793Z,98399.20
2019-05-29T19:44:43.737Z,98404.34
2019-05-29T19:46:53.611Z,98399.64
2019-05-29T19:48:49.513Z,98408.13
2019-05-29T19:50:52.200Z,98406.41
2019-05-29T19:52:55.192Z,98404.27
2019-05-29T19:54:56.848Z,98406.36
2019-05-29T19:56:59.439Z,98410.61
2019-05-29T19:59:02.212Z,98413.59
2019-05-29T20:01:03.929Z,98413.13
2019-05-29T20:03:05.676Z,98418.72
2019-05-29T20:05:08.807Z,98421.71
2019-05-29T20:07:11.194Z,98420.48
2019-05-29T20:09:12.784Z,98416.69
2019-05-29T20:11:15.527Z,98418.02
2019-05-29T20:13:17.594Z,98416.77
2019-05-29T20:15:19.289Z,98424.42
2019-05-29T20:17:21.355Z,98425.72
2019-05-29T20:19:24.259Z,98421.92
2019-05-29T20:21:25.858Z,98427.48
2019-05-29T20:23:28.589Z,98430.09
2019-05-29T20:25:29.246Z,98426.73
2019-05-29T20:27:32.047Z,98432.33
2019-05-29T20:29:32.729Z,98431.09
2019-05-29T20:31:34.591Z,98434.13
2019-05-29T20:33:36.639Z,98442.27
2019-05-29T20:35:39.031Z,98441.47
2019-05-29T20:37:39.494Z,98440.67
2019-05-29T20:39:41.094Z,98470.08
2019-05-29T20:41:43.609Z,98448.81
2019-05-29T20:43:44.378Z,98426.05
2019-05-29T20:45:46.735Z,98445.55
2019-05-29T20:47:48.391Z,98456.20
2019-05-29T20:49:49.995Z,98454.11
2019-05-29T20:51:51.574Z,98454.12
2019-05-29T20:53:53.467Z,98459.27
2019-05-29T20:55:55.110Z,98423.81
2019-05-29T20:57:56.787Z,98457.62
2019-05-29T20:59:58.559Z,98453.59
2019-05-29T21:02:00.187Z,98463.26
2019-05-29T21:04:01.899Z,98461.89
2019-05-29T21:06:03.586Z,98466.20
2019-05-29T21:08:05.241Z,98464.57
2019-05-29T21:10:06.870Z,98464.48
2019-05-29T21:12:08.702Z,98470.08
2019-05-29T21:14:10.339Z,98468.84
2019-05-29T21:16:12.770Z,98469.69
2019-05-29T21:18:14.427Z,98469.77
2019-05-29T21:20:16.133Z,98469.12
2019-05-29T21:22:17.746Z,98476.98
2019-05-29T21:24:19.375Z,98484.87
2019-05-29T21:26:21.141Z,98482.98
2019-05-29T21:28:22.949Z,98480.59
2019-05-29T21:30:24.791Z,98479.10
2019-05-29T21:32:26.419Z,98487.19
2019-05-29T21:34:28.139Z,98482.89
2019-05-29T21:36:29.773Z,98483.27
2019-05-29T21:38:31.370Z,98483.09
2019-05-29T21:40:32.998Z,98481.67
2019-05-29T21:42:36.432Z,98487.41
2019-05-29T21:44:37.021Z,98487.11
2019-05-29T21:46:38.866Z,98487.95
2019-05-29T21:48:40.978Z,98466.29
2019-05-29T21:50:43.246Z,98481.63
2019-05-29T21:52:43.747Z,98483.54
2019-05-29T21:54:45.694Z,98483.84
2019-05-29T21:56:47.899Z,98478.66
2019-05-29T21:59:03.081Z,98484.34
2019-05-29T22:00:50.429Z,98488.67
2019-05-29T22:02:52.088Z,98488.23
2019-05-29T22:04:53.718Z,98489.27
2019-05-29T22:06:55.438Z,98493.53
2019-05-29T22:08:57.111Z,98494.45
2019-05-29T22:10:59.623Z,98490.55
2019-05-29T22:13:00.767Z,98497.75
2019-05-29T22:15:03.621Z,98497.63
2019-05-29T22:17:04.307Z,98496.59
2019-05-29T22:19:05.919Z,98497.30
2019-05-29T22:21:07.545Z,98500.17
2019-05-29T22:23:09.194Z,98496.95
2019-05-29T22:25:10.827Z,98498.73
2019-05-29T22:27:12.398Z,98502.86
2019-05-29T22:29:18.178Z,98503.42
2019-05-29T22:31:15.834Z,98496.21
2019-05-29T22:33:17.418Z,98501.03
2019-05-29T22:35:19.018Z,98500.59
2019-05-29T22:37:20.675Z,98511.52
2019-05-29T22:39:22.423Z,98509.28
2019-05-29T22:41:24.318Z,98511.41
2019-05-29T22:43:25.898Z,98507.98
2019-05-29T22:45:27.569Z,98510.02
2019-05-29T22:47:29.319Z,98505.91
2019-05-29T22:49:31.343Z,98505.01
2019-05-29T22:51:33.185Z,98506.52
2019-05-29T22:53:35.081Z,98507.54
2019-05-29T22:55:36.797Z,98503.47
2019-05-29T22:57:38.440Z,98511.66
2019-05-29T22:59:40.076Z,98510.17
2019-05-29T23:01:41.758Z,98508.23
2019-05-29T23:03:43.404Z,98511.59
2019-05-29T23:05:45.106Z,98515.19
2019-05-29T23:07:46.716Z,98513.28
2019-05-29T23:09:48.298Z,98518.54
2019-05-29T23:11:50.129Z,98521.65
2019-05-29T23:13:52.286Z,98520.95
2019-05-29T23:15:54.499Z,98515.94
2019-05-29T23:17:56.390Z,98519.04
2019-05-29T23:19:58.470Z,98523.84
2019-05-29T23:21:59.238Z,98529.87
2019-05-29T23:24:01.760Z,98527.41
2019-05-29T23:26:02.949Z,98527.94
2019-05-29T23:28:04.212Z,98535.24
2019-05-29T23:30:05.919Z,98539.60
2019-05-29T23:32:07.800Z,98535.81
2019-05-29T23:34:09.870Z,98532.47
2019-05-29T23:36:11.452Z,98536.78
2019-05-29T23:38:13.083Z,98533.41
2019-05-29T23:40:14.896Z,98537.30
2019-05-29T23:42:16.676Z,98537.72
2019-05-29T23:44:18.308Z,98538.10
2019-05-29T23:46:20.018Z,98532.59
2019-05-29T23:48:21.604Z,98531.27
2019-05-29T23:50:23.234Z,98537.62
2019-05-29T23:52:24.869Z,98540.09